This is the latest recevied weather packets stored in our database for station/object SP2WM. If no packets are shown the sender has not sent any weather packets the latest 10 day(s).
| Time | Temp. | Humidity | Pressure | Rain* | Wind** | Luminosity | Snow |
|---|---|---|---|---|---|---|---|
| 1777619436 | 15.56° C | 52% | 1024.5 hPa | 0 mm | - | - | - |
| 1777618836 | 16.11° C | 51% | 1024.5 hPa | 0 mm | - | - | - |
| 1777618236 | 15.56° C | 53% | 1024.5 hPa | 0 mm | - | - | - |
| 1777617638 | 15° C | 54% | 1024.3 hPa | 0 mm | - | - | - |
| 1777617019 | 14.44° C | 55% | 1024.3 hPa | 0 mm | - | - | - |
| 1777616419 | 13.33° C | 59% | 1024.2 hPa | 0 mm | - | - | - |
| 1777615838 | 11.67° C | 63% | 1024.2 hPa | 0 mm | - | - | - |
| 1777615222 | 10.56° C | 66% | 1024.2 hPa | 0 mm | - | - | - |
| 1777614625 | 10° C | 69% | 1024.2 hPa | 0 mm | - | - | - |
| 1777614024 | 8.89° C | 72% | 1024.1 hPa | 0 mm | - | - | - |
| 1777613423 | 8.33° C | 75% | 1024.1 hPa | 0 mm | - | - | - |
| 1777612830 | 7.22° C | 79% | 1024.2 hPa | 0 mm | - | - | - |
| 1777612229 | 6.67° C | 83% | 1024.2 hPa | 0 mm | - | - | - |
| 1777611627 | 5.56° C | 86% | 1024.1 hPa | 0 mm | - | - | - |
| 1777611029 | 5° C | 87% | 1024 hPa | 0 mm | - | - | - |
| 1777610427 | 4.44° C | 88% | 1024.1 hPa | 0 mm | - | - | - |
| 1777609832 | 3.89° C | 90% | 1024.1 hPa | 0 mm | - | - | - |
| 1777609234 | 2.22° C | 89% | 1024 hPa | 0 mm | - | - | - |
| 1777608633 | 2.22° C | 89% | 1024 hPa | 0 mm | - | - | - |
| 1777608034 | 1.67° C | 88% | 1023.9 hPa | 0 mm | - | - | - |
| 1777607439 | 1.67° C | 88% | 1023.9 hPa | 0 mm | - | - | - |
| 1777606838 | 1.67° C | 88% | 1023.9 hPa | 0 mm | - | - | - |
| 1777606238 | 1.67° C | 88% | 1024 hPa | 0 mm | - | - | - |
| 1777605638 | 1.67° C | 87% | 1023.9 hPa | 0 mm | - | - | - |
| 1777605020 | 1.67° C | 87% | 1024 hPa | 0 mm | - | - | - |
* Rain latest hour (hover to see other rain measurements)
** Current wind speed in m/s (hover to see current wind gust speed)